Time;durP1;ratioP1;P1;durP2;ratioP2;P2;SDS_P1;SDS_P2;PMS_P1;PMS_P2;Temp;Humidity;BMP_temperature;BMP_pressure;BME280_temperature;BME280_humidity;BME280_pressure;Samples;Min_cycle;Max_cycle;Signal;HPM_P1;HPM_P2
2022/08/02 00:02:19;;;;;;;1.17;1.17;;;;;;;25.11;46.43;97941.06;4993680;28;20179;-63
2022/08/02 00:04:45;;;;;;;2.47;1.30;;;;;;;25.16;45.77;97946.56;4992323;28;20266;-63
2022/08/02 00:07:11;;;;;;;1.27;1.27;;;;;;;25.20;45.47;97947.75;4992263;28;20176;-62
2022/08/02 00:09:36;;;;;;;1.20;1.20;;;;;;;25.31;44.97;97947.16;4993432;28;20194;-63
2022/08/02 00:12:02;;;;;;;1.23;1.13;;;;;;;25.28;45.31;97944.94;4993435;28;20182;-62
2022/08/02 00:14:28;;;;;;;1.38;1.27;;;;;;;25.34;45.45;97952.03;4993583;28;20170;-62
2022/08/02 00:16:53;;;;;;;1.83;1.20;;;;;;;25.30;45.32;97952.69;4993318;28;20568;-63
2022/08/02 00:19:19;;;;;;;1.00;1.00;;;;;;;25.28;46.06;97955.53;4993773;28;20175;-63
2022/08/02 00:21:44;;;;;;;1.10;1.10;;;;;;;25.25;45.48;97952.47;4993269;28;20565;-63
2022/08/02 00:24:09;;;;;;;1.10;1.10;;;;;;;25.26;45.47;97952.25;4993236;28;20672;-63
2022/08/02 00:26:35;;;;;;;1.30;1.20;;;;;;;25.26;45.38;97960.19;4993454;28;20179;-64
2022/08/02 00:29:00;;;;;;;1.38;1.30;;;;;;;25.24;45.69;97958.78;4993057;28;20621;-63
2022/08/02 00:31:26;;;;;;;1.13;1.10;;;;;;;25.14;46.34;97953.88;4975717;28;20190;-63
2022/08/02 00:33:51;;;;;;;1.20;1.20;;;;;;;24.98;47.15;97961.47;4992906;28;20211;-63
2022/08/02 00:36:17;;;;;;;1.30;1.30;;;;;;;24.92;46.28;97968.41;4993032;28;20250;-63
2022/08/02 00:38:43;;;;;;;2.25;1.10;;;;;;;25.07;45.82;97958.38;5008092;28;20652;-64
2022/08/02 00:41:16;;;;;;;1.85;1.13;;;;;;;24.84;47.14;97963.31;4992892;28;20260;-63
2022/08/02 00:43:43;;;;;;;1.48;1.38;;;;;;;24.61;47.73;97954.97;5008083;28;20183;-62
2022/08/02 00:46:09;;;;;;;1.55;1.48;;;;;;;24.52;47.73;97960.66;4993166;28;20210;-63
2022/08/02 00:48:35;;;;;;;1.20;1.20;;;;;;;24.21;48.55;97944.56;4992381;28;20316;-62
2022/08/02 00:51:00;;;;;;;1.50;1.40;;;;;;;24.08;49.16;97944.56;4992851;28;20181;-62
2022/08/02 00:53:26;;;;;;;1.40;1.30;;;;;;;24.18;48.53;97950.22;4992788;28;20179;-63
2022/08/02 00:55:51;;;;;;;1.13;1.10;;;;;;;24.03;49.26;97942.47;4992795;28;20225;-63
2022/08/02 00:58:17;;;;;;;0.90;0.90;;;;;;;24.26;48.72;97942.94;4992768;28;20179;-62
2022/08/02 01:00:42;;;;;;;1.95;1.27;;;;;;;24.24;48.68;97944.97;4992758;28;20628;-63
2022/08/02 01:03:08;;;;;;;1.02;1.02;;;;;;;24.08;49.17;97933.16;4993183;28;20622;-63
2022/08/02 01:05:33;;;;;;;1.70;1.20;;;;;;;24.01;49.64;97943.69;4992653;28;20715;-63
2022/08/02 01:07:59;;;;;;;1.20;1.20;;;;;;;23.91;49.61;97931.88;4992551;28;20282;-63
2022/08/02 01:10:24;;;;;;;1.60;1.30;;;;;;;23.91;49.53;97931.88;4992678;28;20171;-63
2022/08/02 01:12:50;;;;;;;1.38;1.27;;;;;;;23.95;49.35;97927.84;4992628;28;20605;-63
2022/08/02 01:15:16;;;;;;;0.93;0.93;;;;;;;24.08;48.26;97913.63;4992678;28;20186;-63
2022/08/02 01:17:51;;;;;;;1.15;1.15;;;;;;;24.23;49.09;97921.38;4992538;28;20175;-63
2022/08/02 01:20:24;;;;;;;1.20;1.10;;;;;;;24.33;48.09;97922.59;4992796;28;20163;-63
2022/08/02 01:22:52;;;;;;;1.30;1.10;;;;;;;24.46;47.67;97935.84;4992809;28;20164;-62
2022/08/02 01:25:39;;;;;;;3.58;1.00;;;;;;;24.62;46.88;97929.34;4992496;28;20179;-63
2022/08/02 01:28:17;;;;;;;2.38;1.05;;;;;;;24.71;47.07;97928.94;4992344;28;20281;-62
2022/08/02 01:30:45;;;;;;;1.10;0.98;;;;;;;24.48;47.56;97922.38;4992730;28;20199;-63
2022/08/02 01:33:15;;;;;;;1.80;0.90;;;;;;;24.41;47.07;97919.75;4992220;28;20216;-63
2022/08/02 01:35:46;;;;;;;0.93;0.93;;;;;;;24.41;47.53;97916.28;4992461;28;20195;-62
2022/08/02 01:38:38;;;;;;;1.92;1.05;;;;;;;24.36;47.87;97927.47;4992706;28;20155;-62
2022/08/02 01:41:06;;;;;;;1.00;1.00;;;;;;;24.24;48.15;97921.16;4985659;28;20274;-62
2022/08/02 01:43:35;;;;;;;0.98;0.98;;;;;;;24.35;47.02;97915.28;4991114;28;20202;-62
2022/08/02 01:46:03;;;;;;;1.27;0.93;;;;;;;24.53;47.02;97918.13;4991090;28;20637;-63
2022/08/02 01:48:33;;;;;;;0.90;0.90;;;;;;;24.32;47.66;97910.38;4991070;28;20290;-62
2022/08/02 01:51:01;;;;;;;2.05;1.10;;;;;;;24.30;47.79;97909.78;4992755;28;20180;-62
2022/08/02 01:53:29;;;;;;;1.95;1.10;;;;;;;24.00;48.51;97906.91;4992612;28;20183;-62
2022/08/02 01:55:58;;;;;;;0.80;0.80;;;;;;;24.01;48.44;97908.53;4992236;28;20354;-62
2022/08/02 01:58:28;;;;;;;1.02;1.02;;;;;;;23.97;48.77;97909.94;4992743;28;20175;-62
2022/08/02 02:00:56;;;;;;;1.48;0.90;;;;;;;23.97;48.40;97899.38;4995814;28;20617;-62
2022/08/02 02:03:25;;;;;;;1.90;1.10;;;;;;;23.98;48.32;97907.09;4995859;28;20564;-62
2022/08/02 02:05:55;;;;;;;1.02;1.02;;;;;;;24.02;47.69;97898.56;4995778;28;20179;-62
2022/08/02 02:08:26;;;;;;;2.10;0.95;;;;;;;24.18;48.20;97908.75;4995711;28;20253;-62
2022/08/02 02:10:53;;;;;;;2.25;1.00;;;;;;;24.17;48.21;97893.91;4995730;28;20179;-62
2022/08/02 02:13:19;;;;;;;1.00;0.90;;;;;;;24.04;48.37;97907.09;4995658;28;20262;-63
2022/08/02 02:15:47;;;;;;;0.98;0.98;;;;;;;24.06;48.29;97896.31;4994323;28;20275;-62
2022/08/02 02:18:26;;;;;;;1.10;1.10;;;;;;;23.61;49.70;97904.94;4995793;28;20181;-62
2022/08/02 02:20:53;;;;;;;1.58;0.98;;;;;;;23.48;49.76;97888.25;4995532;28;20182;-62
2022/08/02 02:23:18;;;;;;;1.00;1.00;;;;;;;23.48;49.40;97896.19;4995466;28;20278;-62
2022/08/02 02:25:45;;;;;;;2.65;1.30;;;;;;;23.41;50.11;97903.25;4995390;28;20720;-63
2022/08/02 02:28:18;;;;;;;3.33;1.55;;;;;;;23.50;49.29;97897.63;4994053;28;20195;-62
2022/08/02 02:30:48;;;;;;;1.27;1.20;;;;;;;23.38;49.72;97898.38;4995631;28;20171;-62
2022/08/02 02:33:17;;;;;;;2.28;1.15;;;;;;;23.33;49.74;97895.50;4995159;28;20313;-62
2022/08/02 02:35:45;;;;;;;0.95;0.95;;;;;;;23.21;50.23;97894.44;4995536;28;20175;-63
2022/08/02 02:38:13;;;;;;;0.90;0.90;;;;;;;23.30;50.23;97898.56;4995218;28;20617;-62
2022/08/02 02:40:40;;;;;;;1.08;1.02;;;;;;;23.26;50.25;97899.94;4995438;28;20185;-62
2022/08/02 02:43:08;;;;;;;0.90;0.90;;;;;;;23.39;49.67;97897.34;4995144;28;20183;-62
2022/08/02 02:45:36;;;;;;;1.45;1.05;;;;;;;23.16;50.72;97902.09;4995386;28;20270;-62
2022/08/02 02:48:03;;;;;;;3.28;1.38;;;;;;;23.36;50.37;97906.47;4995002;28;20199;-62
2022/08/02 02:50:30;;;;;;;4.60;2.03;;;;;;;23.58;49.80;97909.81;4995159;28;20265;-63
2022/08/02 02:52:56;;;;;;;2.55;1.35;;;;;;;23.41;50.71;97903.25;4994987;28;20270;-62
2022/08/02 02:55:24;;;;;;;4.00;1.38;;;;;;;23.17;51.70;97901.13;4994954;28;20186;-62
2022/08/02 02:57:49;;;;;;;2.35;1.65;;;;;;;23.05;52.60;97897.38;4994924;28;20233;-64
2022/08/02 03:00:15;;;;;;;1.70;1.60;;;;;;;23.09;52.61;97903.91;4993592;28;20686;-64
2022/08/02 03:02:42;;;;;;;2.65;1.33;;;;;;;23.23;52.03;97901.16;4994831;28;20700;-63
2022/08/02 03:05:09;;;;;;;2.70;1.60;;;;;;;22.82;53.91;97896.81;4994716;28;20182;-63
2022/08/02 03:07:35;;;;;;;3.10;1.58;;;;;;;22.62;54.23;97891.41;4994687;28;20194;-64
2022/08/02 03:10:05;;;;;;;1.63;1.40;;;;;;;22.80;53.62;97893.59;4994237;28;20260;-64
2022/08/02 03:12:32;;;;;;;2.45;1.00;;;;;;;22.84;52.11;97889.56;4994564;28;20179;-64
2022/08/02 03:15:04;;;;;;;1.60;1.50;;;;;;;22.99;51.18;97903.44;4994580;28;20171;-63
2022/08/02 03:17:41;;;;;;;1.70;1.10;;;;;;;22.78;50.73;97892.97;4994372;28;20246;-63
2022/08/02 03:20:10;;;;;;;3.08;1.13;;;;;;;22.69;51.61;97897.59;4994439;28;20185;-63
2022/08/02 03:22:35;;;;;;;1.15;0.90;;;;;;;22.73;51.28;97909.34;4994496;28;20194;-63
2022/08/02 03:25:01;;;;;;;1.08;1.00;;;;;;;22.70;51.39;97909.75;4994468;28;20175;-63
2022/08/02 03:27:26;;;;;;;1.60;1.00;;;;;;;22.78;51.61;97906.97;4994316;28;20667;-63
2022/08/02 03:29:51;;;;;;;2.50;1.20;;;;;;;22.93;51.36;97909.47;4994166;28;20281;-64
2022/08/02 03:32:17;;;;;;;1.15;1.05;;;;;;;22.97;51.40;97918.66;4994068;28;20187;-62
2022/08/02 03:34:42;;;;;;;1.35;1.25;;;;;;;23.00;50.54;97919.06;4994122;28;20558;-62
2022/08/02 03:37:08;;;;;;;1.35;1.10;;;;;;;23.12;50.90;97914.88;4994313;28;20233;-63
2022/08/02 03:39:34;;;;;;;4.50;1.70;;;;;;;23.18;51.70;97919.41;4994134;28;20175;-63
2022/08/02 03:42:00;;;;;;;2.75;1.88;;;;;;;23.24;51.72;97931.03;4994006;28;20171;-63
2022/08/02 03:44:26;;;;;;;2.92;1.70;;;;;;;23.30;51.82;97932.88;4993970;28;20194;-63
2022/08/02 03:46:52;;;;;;;2.50;1.77;;;;;;;23.30;51.73;97923.13;4993944;28;20175;-63
2022/08/02 03:49:19;;;;;;;5.07;1.80;;;;;;;23.40;51.95;97928.84;4994121;28;20210;-63
2022/08/02 03:51:45;;;;;;;3.75;1.75;;;;;;;23.38;52.03;97924.78;4993860;28;20185;-62
2022/08/02 03:54:12;;;;;;;2.33;1.63;;;;;;;23.51;51.73;97930.09;4993781;28;20183;-63
2022/08/02 03:56:38;;;;;;;2.53;1.63;;;;;;;23.62;51.14;97937.47;4993724;28;20210;-62
2022/08/02 03:59:13;;;;;;;1.55;1.45;;;;;;;23.73;50.21;97939.53;4993672;28;20183;-62
2022/08/02 04:01:40;;;;;;;3.30;1.48;;;;;;;23.78;50.91;97949.31;4992437;28;20167;-62
2022/08/02 04:04:06;;;;;;;5.05;1.85;;;;;;;23.81;51.66;97948.91;4993890;28;20209;-62
2022/08/02 04:06:32;;;;;;;1.95;1.85;;;;;;;23.86;51.58;97950.97;4993603;28;20179;-63
2022/08/02 04:08:57;;;;;;;1.88;1.60;;;;;;;23.85;51.56;97949.34;4993760;28;20646;-63
2022/08/02 04:11:32;;;;;;;3.03;1.98;;;;;;;23.83;51.50;97957.47;4993756;28;20175;-63
2022/08/02 04:14:05;;;;;;;1.55;1.40;;;;;;;23.92;50.54;97958.13;4992582;28;20178;-63
2022/08/02 04:16:39;;;;;;;1.73;1.60;;;;;;;23.77;51.09;97954.78;5008426;28;20606;-62
2022/08/02 04:19:08;;;;;;;1.77;1.67;;;;;;;23.77;51.44;97952.97;4993656;28;20166;-63
2022/08/02 04:21:37;;;;;;;2.08;1.95;;;;;;;23.38;51.56;97945.91;4992655;28;20175;-62
2022/08/02 04:24:06;;;;;;;1.80;1.65;;;;;;;23.40;52.35;97938.59;4993281;28;20186;-62
2022/08/02 04:26:33;;;;;;;1.55;1.50;;;;;;;23.59;51.61;97951.09;4993233;28;20660;-62
2022/08/02 04:29:00;;;;;;;1.40;1.27;;;;;;;23.73;50.90;97946.44;4993101;28;20203;-62
2022/08/02 04:31:26;;;;;;;1.58;1.30;;;;;;;23.77;49.34;97937.13;4991844;28;20210;-62
2022/08/02 04:33:52;;;;;;;1.35;1.35;;;;;;;23.91;49.92;97953.03;4992968;28;20793;-61
2022/08/02 04:36:17;;;;;;;1.50;1.45;;;;;;;23.94;50.45;97947.38;4993460;28;20179;-61
2022/08/02 04:38:43;;;;;;;1.67;1.58;;;;;;;23.84;50.98;97951.16;4993397;28;20254;-62
2022/08/02 04:41:09;;;;;;;1.80;1.70;;;;;;;23.79;51.27;97944.84;4992301;28;20215;-63
2022/08/02 04:43:35;;;;;;;2.95;1.70;;;;;;;23.73;51.44;97957.00;4993102;28;20214;-62
2022/08/02 04:46:02;;;;;;;1.95;1.83;;;;;;;23.58;51.62;97952.06;4992926;28;20575;-62
2022/08/02 04:48:28;;;;;;;1.50;1.50;;;;;;;23.55;51.96;97952.47;4992822;28;20602;-62
2022/08/02 04:50:53;;;;;;;1.50;1.50;;;;;;;23.49;52.34;97953.28;4992863;28;20181;-63
2022/08/02 04:53:19;;;;;;;2.97;1.65;;;;;;;23.56;52.10;97949.66;4992832;28;20684;-63
2022/08/02 04:55:45;;;;;;;2.75;1.50;;;;;;;23.66;51.85;97950.06;4992789;28;20549;-62
2022/08/02 04:58:11;;;;;;;2.65;1.38;;;;;;;23.75;51.28;97933.03;4993043;28;20175;-62
2022/08/02 05:00:36;;;;;;;1.90;1.70;;;;;;;23.84;51.29;97948.50;4992947;28;20197;-62
2022/08/02 05:03:02;;;;;;;1.48;1.38;;;;;;;23.90;51.45;97946.91;4992821;28;20168;-62
2022/08/02 05:05:27;;;;;;;1.60;1.50;;;;;;;23.94;49.98;97961.38;4992691;28;20173;-62
2022/08/02 05:07:53;;;;;;;1.58;1.48;;;;;;;24.09;50.43;97952.25;4991342;28;20175;-62
2022/08/02 05:10:19;;;;;;;1.73;1.63;;;;;;;24.12;50.63;97952.88;4992910;28;20174;-62
2022/08/02 05:12:44;;;;;;;2.00;1.70;;;;;;;24.26;50.68;97964.09;4991387;28;20591;-62
2022/08/02 05:15:15;;;;;;;1.70;1.60;;;;;;;24.44;49.89;97964.31;4992603;28;20644;-62
2022/08/02 05:17:41;;;;;;;1.42;1.42;;;;;;;24.53;49.35;97970.22;4992570;28;20163;-62
2022/08/02 05:20:07;;;;;;;1.80;1.70;;;;;;;24.56;49.20;97959.22;4992563;28;20667;-62
2022/08/02 05:22:32;;;;;;;3.28;1.77;;;;;;;24.54;48.04;97983.25;4991317;28;20183;-62
2022/08/02 05:24:58;;;;;;;1.60;1.50;;;;;;;24.55;48.67;97969.00;4992476;28;20559;-63
2022/08/02 05:27:23;;;;;;;1.70;1.60;;;;;;;24.54;48.59;97982.41;4992476;28;20186;-62
2022/08/02 05:29:50;;;;;;;2.08;1.88;;;;;;;24.30;49.84;97965.31;4992351;28;20205;-63
2022/08/02 05:32:16;;;;;;;3.75;1.65;;;;;;;24.42;49.62;97971.63;4992366;28;20231;-62
2022/08/02 05:34:42;;;;;;;1.88;1.50;;;;;;;24.51;48.96;97972.25;4995950;28;20660;-63
2022/08/02 05:37:07;;;;;;;2.40;1.40;;;;;;;24.45;48.30;97973.84;4996363;28;20182;-63
2022/08/02 05:39:33;;;;;;;2.00;1.80;;;;;;;24.62;48.02;97980.41;4996329;28;20174;-62
2022/08/02 05:41:58;;;;;;;3.00;1.80;;;;;;;24.73;48.00;97977.16;4994945;28;20257;-62
2022/08/02 05:44:23;;;;;;;1.77;1.63;;;;;;;24.87;46.33;97973.50;4996263;28;20262;-63
2022/08/02 05:46:49;;;;;;;2.80;1.58;;;;;;;25.02;47.02;97986.53;4996232;28;20174;-63
2022/08/02 05:49:14;;;;;;;1.73;1.63;;;;;;;25.31;42.88;97992.19;4996100;28;20680;-61
2022/08/02 05:51:50;;;;;;;1.77;1.33;;;;;;;25.59;41.80;97997.22;4996125;28;20255;-62
2022/08/02 05:54:38;;;;;;;3.10;1.58;;;;;;;25.81;41.31;98002.00;4995975;28;20659;-61
2022/08/02 05:57:13;;;;;;;3.67;1.52;;;;;;;26.05;40.04;98003.13;4996782;28;20170;-61
2022/08/02 05:59:58;;;;;;;1.55;1.40;;;;;;;26.18;40.35;98003.88;4996120;28;20166;-62
2022/08/02 06:03:17;;;;;;;1.60;1.50;;;;;;;26.43;39.12;97999.47;4996061;28;20191;-61
2022/08/02 06:05:57;;;;;;;1.73;1.60;;;;;;;26.54;39.24;98006.72;4971791;28;20245;-61
2022/08/02 06:08:40;;;;;;;2.58;1.60;;;;;;;26.69;38.91;98003.75;4995872;28;20615;-61
2022/08/02 06:11:11;;;;;;;2.60;1.52;;;;;;;26.86;38.22;98011.00;4995867;28;20187;-61
2022/08/02 06:13:37;;;;;;;4.60;1.40;;;;;;;27.00;38.39;97996.56;4995990;28;20159;-61
2022/08/02 06:16:04;;;;;;;2.20;1.40;;;;;;;27.09;37.70;98008.53;4995592;28;20548;-62
2022/08/02 06:18:31;;;;;;;1.58;1.42;;;;;;;27.18;37.80;98004.59;4995613;28;20175;-62
2022/08/02 06:20:59;;;;;;;2.10;1.17;;;;;;;27.30;36.83;98012.66;4995811;28;20175;-63
2022/08/02 06:23:25;;;;;;;1.60;1.50;;;;;;;27.20;37.27;98013.16;4996281;28;20586;-62
2022/08/02 06:25:52;;;;;;;1.42;1.33;;;;;;;27.26;37.92;98014.13;4994243;28;20175;-63
2022/08/02 06:28:19;;;;;;;1.38;1.30;;;;;;;27.29;38.09;98019.81;4995270;28;20195;-62
2022/08/02 06:30:44;;;;;;;2.75;1.60;;;;;;;27.41;37.68;98015.38;4995549;28;20266;-62
2022/08/02 06:33:11;;;;;;;1.30;1.30;;;;;;;27.47;37.13;98022.47;4995168;28;20289;-62
2022/08/02 06:36:08;;;;;;;3.63;1.23;;;;;;;27.48;37.07;98026.78;4995066;28;20246;-62
2022/08/02 06:38:43;;;;;;;1.65;1.20;;;;;;;27.53;36.96;98018.13;4995493;28;20237;-62
2022/08/02 06:41:12;;;;;;;3.65;1.17;;;;;;;27.56;37.01;98013.19;4995339;28;20648;-62
2022/08/02 06:43:53;;;;;;;2.67;1.10;;;;;;;27.58;36.38;98029.72;4995397;28;20175;-63
2022/08/02 06:46:19;;;;;;;1.40;1.30;;;;;;;27.62;37.26;98028.25;4993188;28;20167;-63
2022/08/02 06:48:45;;;;;;;1.38;1.25;;;;;;;27.62;36.96;98022.94;4993731;28;20291;-63
2022/08/02 06:51:11;;;;;;;2.55;1.20;;;;;;;27.67;37.39;98012.44;4995068;28;20317;-63
2022/08/02 06:53:37;;;;;;;1.30;1.20;;;;;;;27.71;36.59;98021.63;4995029;28;20250;-63
2022/08/02 06:56:03;;;;;;;1.85;1.75;;;;;;;27.74;37.34;98017.69;4995112;28;20175;-62
2022/08/02 06:58:29;;;;;;;1.23;1.10;;;;;;;27.78;36.52;98013.56;4995074;28;20163;-62
2022/08/02 07:00:54;;;;;;;5.45;1.20;;;;;;;27.84;36.39;98018.81;4994868;28;20181;-62
2022/08/02 07:03:20;;;;;;;0.95;0.75;;;;;;;27.77;36.37;98010.13;4994831;28;20649;-63
2022/08/02 07:05:47;;;;;;;1.45;1.23;;;;;;;27.74;37.02;98013.19;4994964;28;20171;-62
2022/08/02 07:08:14;;;;;;;2.17;1.05;;;;;;;27.84;37.21;98021.50;4994591;28;20236;-63
2022/08/02 07:10:39;;;;;;;1.02;1.00;;;;;;;27.89;36.82;98028.78;4993426;28;20185;-63
2022/08/02 07:13:05;;;;;;;0.90;0.88;;;;;;;27.84;36.75;98016.16;4994914;28;20258;-62
2022/08/02 07:15:30;;;;;;;1.05;1.00;;;;;;;27.79;36.71;98004.56;4994804;28;20185;-61
2022/08/02 07:17:56;;;;;;;4.70;1.13;;;;;;;27.83;36.66;98014.56;4994647;28;20258;-62
2022/08/02 07:20:21;;;;;;;1.17;1.08;;;;;;;27.94;36.87;98018.28;4994520;28;20191;-62
2022/08/02 07:22:46;;;;;;;2.05;1.38;;;;;;;28.01;36.74;98017.19;4994663;28;20234;-62
2022/08/02 07:25:12;;;;;;;3.47;1.08;;;;;;;28.11;36.69;98016.63;4993602;28;20282;-63
2022/08/02 07:27:37;;;;;;;2.95;0.90;;;;;;;28.17;36.48;98021.84;4994523;28;20557;-63
2022/08/02 07:30:04;;;;;;;2.55;0.90;;;;;;;28.26;36.28;98019.69;4994392;28;20187;-63
2022/08/02 07:32:30;;;;;;;3.40;1.15;;;;;;;28.34;36.36;98030.03;4994091;28;20241;-62
2022/08/02 07:34:57;;;;;;;2.33;1.13;;;;;;;28.23;36.54;98012.97;4994474;28;20187;-62
2022/08/02 07:37:26;;;;;;;3.42;1.25;;;;;;;28.29;36.23;98020.03;4992915;28;20558;-62
2022/08/02 07:39:51;;;;;;;3.55;1.23;;;;;;;28.33;36.29;98015.91;4994113;28;20250;-62
2022/08/02 07:42:17;;;;;;;1.40;1.25;;;;;;;28.44;35.63;98017.84;4994239;28;20656;-63
2022/08/02 07:44:42;;;;;;;1.77;1.38;;;;;;;28.40;35.33;98006.00;4994200;28;20171;-64
2022/08/02 07:47:08;;;;;;;2.55;1.15;;;;;;;28.53;34.91;98015.66;4994212;28;20175;-63
2022/08/02 07:49:33;;;;;;;5.28;1.48;;;;;;;28.56;35.44;98021.34;4993880;28;20195;-62
2022/08/02 07:51:58;;;;;;;1.83;1.20;;;;;;;28.63;35.57;98023.91;4994413;28;20206;-63
2022/08/02 07:54:24;;;;;;;1.88;1.00;;;;;;;28.61;35.63;98024.13;4993847;28;20201;-62
2022/08/02 07:56:52;;;;;;;6.82;1.10;;;;;;;28.64;35.17;98023.69;4991847;28;20182;-63
2022/08/02 07:59:17;;;;;;;3.25;1.05;;;;;;;28.73;35.41;98026.81;4993782;28;20177;-63
2022/08/02 08:01:43;;;;;;;1.23;1.13;;;;;;;28.73;34.87;98022.28;4993722;28;20250;-62
2022/08/02 08:04:08;;;;;;;1.10;1.00;;;;;;;28.79;34.75;98031.25;4993669;28;20167;-63
2022/08/02 08:06:34;;;;;;;3.10;1.25;;;;;;;28.70;35.13;98027.28;4993520;28;20203;-63
2022/08/02 08:08:59;;;;;;;1.80;1.20;;;;;;;28.73;35.10;98030.28;4993658;28;20191;-62
2022/08/02 08:11:25;;;;;;;1.27;1.10;;;;;;;28.60;35.23;98016.34;4992323;28;20187;-62
2022/08/02 08:13:51;;;;;;;1.00;1.00;;;;;;;28.70;35.21;98022.78;4993619;28;20178;-63
2022/08/02 08:16:16;;;;;;;3.75;1.15;;;;;;;28.80;35.62;98025.66;4993671;28;20660;-63
2022/08/02 08:18:42;;;;;;;0.90;0.90;;;;;;;28.90;35.42;98027.75;4993227;28;20172;-63
2022/08/02 08:21:07;;;;;;;4.28;1.70;;;;;;;28.94;35.30;98029.75;4992192;28;20175;-64
2022/08/02 08:23:34;;;;;;;2.25;1.10;;;;;;;28.94;35.01;98039.59;4992072;28;20678;-61
2022/08/02 08:25:59;;;;;;;2.67;1.20;;;;;;;28.90;34.75;98039.25;4993569;28;20571;-64
2022/08/02 08:28:25;;;;;;;5.07;1.20;;;;;;;28.95;35.14;98036.72;4993129;28;20683;-62
2022/08/02 08:30:50;;;;;;;0.80;0.80;;;;;;;28.97;34.79;98034.63;4993192;28;20182;-63
2022/08/02 08:33:16;;;;;;;0.80;0.80;;;;;;;28.96;35.25;98043.69;4991743;28;20218;-63
2022/08/02 08:35:41;;;;;;;0.80;0.80;;;;;;;28.98;35.13;98046.91;4993110;28;20167;-63
2022/08/02 08:38:07;;;;;;;1.20;0.85;;;;;;;29.01;34.95;98040.31;4993104;28;20171;-62
2022/08/02 08:40:33;;;;;;;3.45;0.93;;;;;;;29.05;34.84;98042.31;4993019;28;20750;-63
2022/08/02 08:42:59;;;;;;;0.70;0.70;;;;;;;29.09;34.70;98040.78;4993455;28;20190;-63
2022/08/02 08:45:25;;;;;;;1.95;0.80;;;;;;;29.15;34.42;98044.41;4992970;28;20179;-63
2022/08/02 08:47:57;;;;;;;0.98;0.95;;;;;;;29.17;34.54;98036.97;4992890;28;20185;-63
2022/08/02 08:50:24;;;;;;;0.68;0.68;;;;;;;29.21;34.11;98041.59;4993075;28;20201;-63
2022/08/02 08:53:03;;;;;;;1.10;0.95;;;;;;;29.27;34.00;98039.88;4992962;28;20178;-63
2022/08/02 08:55:30;;;;;;;1.13;0.80;;;;;;;29.33;33.55;98038.94;4992939;28;20154;-63
2022/08/02 08:57:58;;;;;;;1.83;0.90;;;;;;;29.09;34.09;98008.81;4992800;28;20179;-63
2022/08/02 09:00:23;;;;;;;3.03;1.63;;;;;;;29.32;34.35;98030.13;4993001;28;20619;-63
2022/08/02 09:02:49;;;;;;;2.55;0.73;;;;;;;29.35;33.22;98036.84;4992723;28;20179;-63
2022/08/02 09:05:16;;;;;;;2.13;0.70;;;;;;;29.30;33.83;98029.56;4992725;28;20188;-63
2022/08/02 09:07:45;;;;;;;0.77;0.65;;;;;;;29.30;33.65;98029.56;4992361;28;20187;-64
2022/08/02 09:10:37;;;;;;;0.70;0.70;;;;;;;29.39;33.27;98032.69;4992819;28;20277;-63
2022/08/02 09:13:16;;;;;;;2.05;0.60;;;;;;;29.43;33.09;98028.53;4992587;28;20234;-63
2022/08/02 09:15:44;;;;;;;0.63;0.63;;;;;;;29.34;33.78;98027.25;4992892;28;20186;-63
2022/08/02 09:18:11;;;;;;;2.50;0.80;;;;;;;29.41;33.99;98030.59;4992588;28;20175;-63
2022/08/02 09:21:00;;;;;;;2.20;0.93;;;;;;;29.56;34.24;98031.75;4992552;28;20186;-63
2022/08/02 09:23:32;;;;;;;2.10;0.85;;;;;;;29.68;34.00;98027.22;4992852;28;20178;-63
2022/08/02 09:25:59;;;;;;;2.50;0.65;;;;;;;29.80;34.11;98025.34;4991527;28;20174;-63
2022/08/02 09:28:27;;;;;;;3.17;1.00;;;;;;;29.87;32.90;98014.53;4992387;28;20231;-63
2022/08/02 09:30:56;;;;;;;0.95;0.80;;;;;;;29.99;33.22;98020.66;4992680;28;20183;-63
2022/08/02 09:33:26;;;;;;;0.85;0.80;;;;;;;30.03;33.36;98005.78;4992278;28;20225;-63
2022/08/02 09:36:11;;;;;;;1.00;1.00;;;;;;;30.13;33.44;98014.81;4992355;28;20185;-63
2022/08/02 09:38:36;;;;;;;4.30;1.15;;;;;;;30.13;33.13;98006.81;4992696;28;20187;-64
2022/08/02 09:41:04;;;;;;;3.10;0.88;;;;;;;30.27;33.07;98016.19;4992584;28;20203;-63
2022/08/02 09:43:40;;;;;;;4.57;1.08;;;;;;;30.38;32.95;98015.28;4992402;28;20175;-63
2022/08/02 09:46:16;;;;;;;5.25;1.00;;;;;;;30.47;32.57;98018.38;4992613;28;20233;-63
2022/08/02 09:48:53;;;;;;;2.17;0.88;;;;;;;30.53;32.82;98009.41;4992256;28;20680;-63
2022/08/02 09:51:33;;;;;;;1.02;1.00;;;;;;;30.52;32.71;98013.94;4992277;28;20221;-63
2022/08/02 09:54:05;;;;;;;2.63;1.20;;;;;;;30.60;32.53;98010.09;4992262;28;20159;-63
2022/08/02 09:57:00;;;;;;;1.00;0.80;;;;;;;30.61;32.10;98012.50;4991096;28;20174;-63
2022/08/02 09:59:27;;;;;;;0.80;0.80;;;;;;;30.59;32.35;98014.59;4979756;28;20199;-63
2022/08/02 10:01:54;;;;;;;1.00;0.82;;;;;;;30.64;32.82;98012.06;4992700;28;20187;-63
2022/08/02 10:04:22;;;;;;;0.75;0.75;;;;;;;30.71;32.37;98007.34;4992227;28;20183;-63
2022/08/02 10:06:49;;;;;;;1.63;1.00;;;;;;;30.82;32.47;98013.66;4992094;28;20187;-63
2022/08/02 10:09:14;;;;;;;1.45;0.80;;;;;;;30.92;32.99;98014.66;4992309;28;20203;-63
2022/08/02 10:11:40;;;;;;;3.35;1.00;;;;;;;31.04;32.19;98001.19;4992108;28;20202;-63
2022/08/02 10:14:08;;;;;;;0.63;0.60;;;;;;;31.15;31.98;98011.81;4992090;28;20687;-63
2022/08/02 10:16:35;;;;;;;2.72;0.80;;;;;;;31.29;31.76;98013.09;4992056;28;20704;-63
2022/08/02 10:19:03;;;;;;;0.80;0.80;;;;;;;31.41;31.44;98008.47;4992046;28;20237;-63
2022/08/02 10:21:47;;;;;;;4.47;0.93;;;;;;;31.49;31.57;98009.91;4994849;28;20182;-64
2022/08/02 10:24:19;;;;;;;2.25;0.85;;;;;;;31.64;30.84;98013.59;4995573;28;20246;-63
2022/08/02 10:26:46;;;;;;;0.77;0.77;;;;;;;31.77;31.38;98007.88;4995772;28;20182;-63
2022/08/02 10:29:20;;;;;;;2.75;0.90;;;;;;;31.90;31.38;98007.53;4995352;28;20553;-63
2022/08/02 10:31:56;;;;;;;0.63;0.63;;;;;;;32.04;30.78;98006.09;4995481;28;20704;-63
2022/08/02 10:34:57;;;;;;;0.55;0.55;;;;;;;32.14;30.69;98008.06;4995450;28;20194;-63
2022/08/02 10:37:28;;;;;;;2.33;0.85;;;;;;;32.02;31.02;98005.53;4985094;28;20195;-63
2022/08/02 10:39:56;;;;;;;2.42;0.90;;;;;;;32.03;30.53;98012.50;4995515;28;20170;-63
2022/08/02 10:42:42;;;;;;;0.80;0.80;;;;;;;31.98;30.68;98009.75;4995314;28;20656;-63
2022/08/02 10:45:14;;;;;;;0.80;0.60;;;;;;;32.13;30.88;98017.94;4995132;28;20253;-64
2022/08/02 10:47:55;;;;;;;0.70;0.70;;;;;;;32.32;29.60;98016.59;4995425;28;20186;-64
2022/08/02 10:50:51;;;;;;;0.88;0.88;;;;;;;32.54;29.08;98019.22;4995077;28;20191;-64
2022/08/02 10:53:33;;;;;;;0.90;0.70;;;;;;;32.92;28.99;98025.22;4994975;28;20257;-63
2022/08/02 10:56:02;;;;;;;0.60;0.60;;;;;;;33.01;28.77;98018.31;4994801;28;20245;-63
2022/08/02 10:58:31;;;;;;;1.48;0.65;;;;;;;33.12;29.09;98011.97;4994974;28;20273;-63
2022/08/02 11:01:31;;;;;;;0.80;0.80;;;;;;;33.12;28.91;98020.00;4994831;28;20656;-63
2022/08/02 11:03:58;;;;;;;0.85;0.70;;;;;;;33.29;28.69;98018.00;4994035;28;20633;-63
2022/08/02 11:06:24;;;;;;;6.45;0.80;;;;;;;33.46;28.29;98018.63;4994424;28;20198;-63
2022/08/02 11:08:49;;;;;;;0.65;0.65;;;;;;;33.61;28.78;98010.69;4993430;28;20676;-63
2022/08/02 11:11:18;;;;;;;1.15;0.90;;;;;;;33.66;28.56;98005.34;4994903;28;20760;-63
2022/08/02 11:13:58;;;;;;;0.80;0.80;;;;;;;33.72;28.65;98008.84;4993901;28;20213;-64
2022/08/02 11:17:04;;;;;;;2.50;1.00;;;;;;;33.76;28.04;98005.38;4994613;28;20668;-63
2022/08/02 11:19:31;;;;;;;1.65;0.75;;;;;;;33.57;28.83;97996.16;4994507;28;20178;-64
2022/08/02 11:22:08;;;;;;;5.72;0.80;;;;;;;33.70;28.09;98003.72;4994523;28;20183;-63
2022/08/02 11:24:36;;;;;;;3.60;0.82;;;;;;;33.93;27.70;97992.56;4994753;28;20223;-63
2022/08/02 11:27:04;;;;;;;2.53;1.08;;;;;;;34.22;27.76;98001.78;4994374;28;20580;-63
2022/08/02 11:29:41;;;;;;;0.70;0.70;;;;;;;34.43;26.93;97998.09;4994222;28;20199;-63
2022/08/02 11:32:14;;;;;;;2.17;0.73;;;;;;;34.67;26.22;97991.13;4994068;28;20273;-63
2022/08/02 11:34:41;;;;;;;1.35;0.82;;;;;;;34.65;26.97;97990.59;4994390;28;20167;-63
2022/08/02 11:37:07;;;;;;;2.47;0.90;;;;;;;34.71;26.90;97992.22;4994377;28;20175;-63
2022/08/02 11:39:32;;;;;;;2.10;0.60;;;;;;;34.77;26.30;97993.03;4994429;28;20535;-63
2022/08/02 11:41:59;;;;;;;0.60;0.60;;;;;;;34.68;26.18;97995.44;4993991;28;20241;-62
2022/08/02 11:44:26;;;;;;;0.35;0.35;;;;;;;34.31;26.12;97994.84;4994232;28;20178;-62